Time;durP1;ratioP1;P1;durP2;ratioP2;P2;SDS_P1;SDS_P2;PMS_P1;PMS_P2;Temp;Humidity;BMP_temperature;BMP_pressure;BME280_temperature;BME280_humidity;BME280_pressure;Samples;Min_cycle;Max_cycle;Signal;HPM_P1;HPM_P2
2022/09/18 00:01:00;;;;;;;2.50;1.30;;;19.70;99.90;;;;;;4163149;28;20216;-77
2022/09/18 00:03:03;;;;;;;5.85;1.40;;;19.70;99.90;;;;;;4162897;28;20643;-77
2022/09/18 00:05:05;;;;;;;3.33;1.42;;;19.70;99.90;;;;;;4163221;28;20270;-77
2022/09/18 00:07:08;;;;;;;2.38;1.40;;;19.70;99.90;;;;;;4146592;28;20237;-77
2022/09/18 00:09:13;;;;;;;2.50;1.17;;;19.70;99.90;;;;;;4146995;28;20209;-77
2022/09/18 00:11:16;;;;;;;2.10;1.10;;;19.70;99.90;;;;;;4149871;28;20624;-77
2022/09/18 00:13:18;;;;;;;2.35;1.27;;;19.70;99.90;;;;;;4150371;28;20209;-77
2022/09/18 00:15:21;;;;;;;2.92;1.10;;;19.70;99.90;;;;;;4150407;28;20225;-77
2022/09/18 00:17:25;;;;;;;2.50;1.35;;;19.70;99.90;;;;;;4150026;28;20271;-77
2022/09/18 00:19:27;;;;;;;2.53;1.30;;;19.70;99.90;;;;;;4150499;28;20237;-77
2022/09/18 00:21:30;;;;;;;2.10;1.15;;;19.70;99.90;;;;;;4149893;28;20728;-77
2022/09/18 00:23:33;;;;;;;4.20;1.40;;;19.70;99.90;;;;;;4150188;28;20645;-77
2022/09/18 00:25:35;;;;;;;3.42;1.33;;;19.70;99.90;;;;;;4141003;28;20267;-77
2022/09/18 00:27:38;;;;;;;3.13;1.30;;;19.70;99.90;;;;;;4150481;28;20279;-78
2022/09/18 00:29:40;;;;;;;2.45;1.40;;;19.70;99.90;;;;;;4149770;28;20205;-77
2022/09/18 00:31:42;;;;;;;1.95;1.30;;;19.70;99.90;;;;;;4149843;28;20252;-77
2022/09/18 00:33:46;;;;;;;2.38;1.35;;;19.70;99.90;;;;;;4138021;28;20256;-77
2022/09/18 00:35:48;;;;;;;3.38;1.55;;;19.70;99.90;;;;;;4149921;28;20240;-77
2022/09/18 00:37:51;;;;;;;2.40;1.27;;;19.70;99.90;;;;;;4150041;28;20283;-77
2022/09/18 00:39:53;;;;;;;3.03;1.42;;;19.70;99.90;;;;;;4150026;28;20564;-77
2022/09/18 00:41:55;;;;;;;3.30;1.58;;;19.70;99.90;;;;;;4149546;28;20217;-77
2022/09/18 00:44:30;;;;;;;2.78;1.00;;;19.70;99.90;;;;;;4149864;28;20213;-77
2022/09/18 00:46:34;;;;;;;2.78;1.27;;;19.70;99.90;;;;;;4149456;28;20247;-77
2022/09/18 00:48:44;;;;;;;3.88;1.33;;;19.70;99.90;;;;;;4149292;28;20213;-78
2022/09/18 00:50:48;;;;;;;2.88;1.42;;;19.70;99.90;;;;;;4149883;28;20264;-77
2022/09/18 00:52:55;;;;;;;1.98;1.20;;;19.70;99.90;;;;;;4149635;28;20275;-77
2022/09/18 00:55:03;;;;;;;1.52;1.08;;;19.70;99.90;;;;;;4149730;28;21007;-77
2022/09/18 00:57:10;;;;;;;5.50;1.45;;;19.70;99.90;;;;;;4147357;28;20264;-77
2022/09/18 00:59:15;;;;;;;2.15;1.38;;;19.70;99.90;;;;;;4149472;28;20714;-78
2022/09/18 01:01:17;;;;;;;3.30;1.45;;;19.70;99.90;;;;;;4149884;28;20712;-77
2022/09/18 01:03:19;;;;;;;4.93;1.90;;;19.70;99.90;;;;;;4149621;28;20818;-77
2022/09/18 01:05:29;;;;;;;1.70;1.17;;;19.70;99.90;;;;;;4150923;28;20217;-77
2022/09/18 01:07:49;;;;;;;1.20;1.00;;;19.70;99.90;;;;;;4162460;28;20219;-77
2022/09/18 01:10:01;;;;;;;2.75;1.40;;;19.70;99.90;;;;;;4163979;28;20548;-78
2022/09/18 01:12:10;;;;;;;2.53;1.13;;;19.70;99.90;;;;;;4165864;28;20216;-78
2022/09/18 01:14:27;;;;;;;2.42;1.20;;;19.70;99.90;;;;;;4165113;28;20212;-77
2022/09/18 01:16:35;;;;;;;3.03;1.40;;;19.70;99.90;;;;;;4164741;28;20216;-77
2022/09/18 01:18:43;;;;;;;2.63;1.20;;;19.70;99.90;;;;;;4165503;28;20220;-77
2022/09/18 01:21:07;;;;;;;2.00;1.17;;;19.70;99.90;;;;;;4160194;28;20266;-77
2022/09/18 01:23:35;;;;;;;2.13;1.10;;;19.70;99.90;;;;;;4165362;28;20332;-77
2022/09/18 01:25:50;;;;;;;2.83;1.48;;;19.60;99.90;;;;;;4152488;28;20216;-77
2022/09/18 01:28:07;;;;;;;2.05;1.30;;;19.70;99.90;;;;;;4162395;28;20221;-77
2022/09/18 01:30:12;;;;;;;2.35;1.40;;;19.60;99.90;;;;;;4163287;28;20231;-77
2022/09/18 01:32:21;;;;;;;3.95;1.40;;;19.60;99.90;;;;;;4164705;28;20243;-77
2022/09/18 01:34:30;;;;;;;2.05;1.13;;;19.60;99.90;;;;;;4165594;28;20216;-77
2022/09/18 01:36:37;;;;;;;2.95;1.58;;;19.60;99.90;;;;;;4165143;28;20220;-77
2022/09/18 01:38:44;;;;;;;4.13;1.60;;;19.60;99.90;;;;;;4157914;28;20212;-77
2022/09/18 01:40:50;;;;;;;3.17;1.35;;;19.60;99.90;;;;;;4156399;28;20612;-77
2022/09/18 01:42:54;;;;;;;1.98;1.33;;;19.60;99.90;;;;;;4162753;28;20864;-77
2022/09/18 01:45:01;;;;;;;2.50;1.38;;;19.60;99.90;;;;;;4164802;28;20283;-77
2022/09/18 01:47:09;;;;;;;2.83;1.65;;;19.60;99.90;;;;;;4164893;28;20272;-77
2022/09/18 01:49:14;;;;;;;3.60;1.50;;;19.60;99.90;;;;;;4164716;28;20212;-78
2022/09/18 01:51:20;;;;;;;3.05;1.45;;;19.60;99.90;;;;;;4164617;28;20267;-77
2022/09/18 01:53:27;;;;;;;2.90;1.40;;;19.60;99.90;;;;;;4165400;28;20220;-77
2022/09/18 01:55:32;;;;;;;2.60;1.33;;;19.60;99.90;;;;;;4165464;28;20217;-77
2022/09/18 01:57:41;;;;;;;2.40;1.52;;;19.60;99.90;;;;;;4162104;28;20731;-77
2022/09/18 01:59:48;;;;;;;2.40;1.45;;;19.60;99.90;;;;;;4164761;28;20235;-77
2022/09/18 02:01:55;;;;;;;2.55;1.40;;;19.60;99.90;;;;;;4164929;28;20209;-77
2022/09/18 02:04:02;;;;;;;3.05;1.27;;;19.60;99.90;;;;;;4165192;28;20211;-77
2022/09/18 02:06:10;;;;;;;3.03;1.30;;;19.60;99.90;;;;;;4156184;28;20289;-75
2022/09/18 02:08:17;;;;;;;3.00;1.50;;;19.60;99.90;;;;;;4166983;28;20219;-77
2022/09/18 02:10:21;;;;;;;2.15;1.25;;;19.60;99.90;;;;;;4160628;28;20258;-77
2022/09/18 02:12:26;;;;;;;2.83;1.30;;;19.60;99.90;;;;;;4165780;28;20216;-77
2022/09/18 02:14:32;;;;;;;2.78;1.33;;;19.60;99.90;;;;;;4164418;28;20627;-78
2022/09/18 02:16:39;;;;;;;3.47;1.27;;;19.60;99.90;;;;;;4164525;28;20639;-77
2022/09/18 02:18:49;;;;;;;2.67;1.20;;;19.60;99.90;;;;;;4165795;28;20221;-78
2022/09/18 02:20:53;;;;;;;2.08;1.23;;;19.60;99.90;;;;;;4161589;28;20239;-78
2022/09/18 02:22:58;;;;;;;1.50;1.23;;;19.50;99.90;;;;;;4164717;28;20635;-77
2022/09/18 02:25:04;;;;;;;1.40;1.00;;;19.60;99.90;;;;;;4175816;28;20216;-77
2022/09/18 02:27:10;;;;;;;2.55;1.40;;;19.60;99.90;;;;;;4165188;28;20282;-77
2022/09/18 02:29:13;;;;;;;3.08;1.40;;;19.60;99.90;;;;;;4164788;28;20580;-77
2022/09/18 02:31:16;;;;;;;2.22;1.25;;;19.50;99.90;;;;;;4162516;28;20270;-77
2022/09/18 02:33:30;;;;;;;2.85;1.15;;;19.50;99.90;;;;;;4162845;28;21065;-77
2022/09/18 02:35:43;;;;;;;1.92;1.40;;;19.50;99.90;;;;;;4164517;28;20551;-77
2022/09/18 02:37:57;;;;;;;1.88;1.20;;;19.60;99.90;;;;;;4161201;28;20267;-77
2022/09/18 02:40:19;;;;;;;2.10;1.25;;;19.60;99.90;;;;;;4164001;28;20229;-77
2022/09/18 02:42:32;;;;;;;1.80;1.20;;;19.60;99.90;;;;;;4161930;28;20262;-77
2022/09/18 02:44:47;;;;;;;2.72;1.15;;;19.60;99.90;;;;;;4164313;28;20274;-77
2022/09/18 02:47:00;;;;;;;2.67;1.42;;;19.60;99.90;;;;;;4160964;28;20263;-77
2022/09/18 02:49:10;;;;;;;2.88;1.30;;;19.50;99.90;;;;;;4155451;28;20708;-77
2022/09/18 02:51:22;;;;;;;2.22;1.25;;;19.60;99.90;;;;;;4163543;28;20219;-78
2022/09/18 02:53:29;;;;;;;2.10;1.10;;;19.60;99.90;;;;;;4164371;28;20612;-77
2022/09/18 02:55:42;;;;;;;2.13;1.20;;;19.50;99.90;;;;;;4163807;28;20274;-78
2022/09/18 02:57:48;;;;;;;2.33;1.35;;;19.50;99.90;;;;;;4155998;28;20224;-77
2022/09/18 02:59:54;;;;;;;2.75;1.30;;;19.50;99.90;;;;;;4164212;28;20633;-77
2022/09/18 03:01:57;;;;;;;2.55;1.33;;;19.60;99.90;;;;;;4164073;28;20217;-77
2022/09/18 03:04:04;;;;;;;2.90;1.00;;;19.60;99.90;;;;;;4163618;28;20266;-77
2022/09/18 03:06:07;;;;;;;2.55;1.30;;;19.50;99.90;;;;;;4163676;28;20228;-78
2022/09/18 03:08:11;;;;;;;2.22;1.40;;;19.50;99.90;;;;;;4163928;28;20208;-77
2022/09/18 03:10:13;;;;;;;2.10;1.33;;;19.50;99.90;;;;;;4164250;28;20208;-77
2022/09/18 03:12:16;;;;;;;1.75;1.30;;;19.50;99.90;;;;;;4163506;28;20271;-77
2022/09/18 03:14:18;;;;;;;2.17;1.38;;;19.50;99.90;;;;;;4156223;28;20216;-77
2022/09/18 03:16:21;;;;;;;2.85;1.23;;;19.50;99.90;;;;;;4163657;28;20958;-77
2022/09/18 03:18:23;;;;;;;2.30;1.17;;;19.50;99.90;;;;;;4163992;28;20221;-77
2022/09/18 03:20:25;;;;;;;2.05;1.25;;;19.50;99.90;;;;;;4163407;28;20290;-77
2022/09/18 03:22:28;;;;;;;2.78;1.30;;;19.50;99.90;;;;;;4163717;28;20273;-77
2022/09/18 03:24:31;;;;;;;1.83;1.20;;;19.50;99.90;;;;;;4163623;28;20224;-77
2022/09/18 03:26:33;;;;;;;2.42;1.42;;;19.50;99.90;;;;;;4163939;28;20262;-77
2022/09/18 03:28:36;;;;;;;1.60;1.23;;;19.50;99.90;;;;;;4163426;28;20244;-77
2022/09/18 03:30:38;;;;;;;1.60;1.20;;;19.50;99.90;;;;;;4164009;28;20216;-77
2022/09/18 03:32:41;;;;;;;2.40;1.08;;;19.50;99.90;;;;;;4158972;28;20257;-77
2022/09/18 03:34:43;;;;;;;2.85;1.50;;;19.50;99.90;;;;;;4163647;28;20704;-78
2022/09/18 03:36:46;;;;;;;1.75;1.35;;;19.50;99.90;;;;;;4161398;28;20216;-77
2022/09/18 03:38:48;;;;;;;2.72;1.30;;;19.50;99.90;;;;;;4163587;28;20657;-77
2022/09/18 03:40:52;;;;;;;2.97;1.30;;;19.50;99.90;;;;;;4163622;28;20282;-77
2022/09/18 03:42:54;;;;;;;3.17;1.50;;;19.50;99.90;;;;;;4163709;28;20719;-77
2022/09/18 03:44:57;;;;;;;3.22;1.58;;;19.50;99.90;;;;;;4165266;28;20224;-77
2022/09/18 03:46:59;;;;;;;2.17;1.30;;;19.50;99.90;;;;;;4166975;28;20653;-77
2022/09/18 03:49:01;;;;;;;2.42;1.30;;;19.50;99.90;;;;;;4167199;28;20657;-77
2022/09/18 03:51:04;;;;;;;2.92;1.25;;;19.50;99.90;;;;;;4166507;28;20212;-77
2022/09/18 03:53:07;;;;;;;3.15;1.50;;;19.50;99.90;;;;;;4166989;28;20216;-77
2022/09/18 03:55:10;;;;;;;1.95;1.23;;;19.50;99.90;;;;;;4166788;28;20618;-77
2022/09/18 03:57:14;;;;;;;2.75;1.33;;;19.50;99.90;;;;;;4164634;28;20646;-77
2022/09/18 03:59:16;;;;;;;2.58;1.20;;;19.50;99.90;;;;;;4166661;28;20275;-77
2022/09/18 04:01:18;;;;;;;3.00;1.30;;;19.50;99.90;;;;;;4162949;28;20241;-77
2022/09/18 04:03:21;;;;;;;3.53;1.60;;;19.50;99.90;;;;;;4166631;28;20224;-77
2022/09/18 04:05:23;;;;;;;1.60;1.20;;;19.50;99.90;;;;;;4164764;28;20246;-77
2022/09/18 04:07:25;;;;;;;2.17;1.17;;;19.50;99.90;;;;;;4135806;28;20327;-77
2022/09/18 04:09:27;;;;;;;2.63;1.38;;;19.50;99.90;;;;;;4150234;28;20221;-77
2022/09/18 04:11:30;;;;;;;2.67;1.40;;;19.50;99.90;;;;;;4150396;28;20221;-77
2022/09/18 04:13:34;;;;;;;2.53;1.50;;;19.50;99.90;;;;;;4139186;28;20218;-77
2022/09/18 04:15:36;;;;;;;3.38;1.30;;;19.50;99.90;;;;;;4149798;28;20287;-77
2022/09/18 04:17:39;;;;;;;2.78;1.20;;;19.50;99.90;;;;;;4150110;28;20275;-77
2022/09/18 04:19:41;;;;;;;2.63;1.48;;;19.50;99.90;;;;;;4150670;28;20620;-77
2022/09/18 04:21:43;;;;;;;2.33;1.20;;;19.50;99.90;;;;;;4141814;28;20236;-77
2022/09/18 04:23:46;;;;;;;2.30;1.50;;;19.50;99.90;;;;;;4150545;28;20246;-77
2022/09/18 04:25:48;;;;;;;1.85;1.20;;;19.50;99.90;;;;;;4149122;28;20543;-77
2022/09/18 04:27:50;;;;;;;2.58;1.25;;;19.50;99.90;;;;;;4150076;28;20213;-77
2022/09/18 04:29:54;;;;;;;2.03;1.48;;;19.50;99.90;;;;;;4150221;28;20624;-78
2022/09/18 04:31:56;;;;;;;1.80;1.23;;;19.50;99.90;;;;;;4139575;28;20303;-77
2022/09/18 04:33:59;;;;;;;2.08;1.25;;;19.40;99.90;;;;;;4149658;28;20268;-77
2022/09/18 04:36:01;;;;;;;2.33;1.27;;;19.40;99.90;;;;;;4149681;28;20732;-77
2022/09/18 04:38:05;;;;;;;1.70;1.17;;;19.40;99.90;;;;;;4149448;28;20209;-77
2022/09/18 04:40:07;;;;;;;1.73;1.23;;;19.50;99.90;;;;;;4143069;28;20217;-77
2022/09/18 04:42:10;;;;;;;1.73;1.20;;;19.40;99.90;;;;;;4149912;28;20283;-77
2022/09/18 04:44:12;;;;;;;3.20;1.52;;;19.40;99.90;;;;;;4150033;28;20646;-77
2022/09/18 04:46:16;;;;;;;2.20;1.27;;;19.50;99.90;;;;;;4149621;28;20663;-77
2022/09/18 04:48:18;;;;;;;4.00;1.45;;;19.40;99.90;;;;;;4149834;28;20225;-77
2022/09/18 04:50:21;;;;;;;2.80;1.42;;;19.50;99.90;;;;;;4149476;28;20256;-77
2022/09/18 04:52:23;;;;;;;2.42;1.30;;;19.40;99.90;;;;;;4149732;28;20619;-77
2022/09/18 04:54:25;;;;;;;2.97;1.48;;;19.40;99.90;;;;;;4149323;28;20634;-77
2022/09/18 04:56:28;;;;;;;3.00;1.45;;;19.40;99.90;;;;;;4149468;28;20646;-77
2022/09/18 04:58:30;;;;;;;1.90;1.30;;;19.40;99.90;;;;;;4149558;28;20628;-77
2022/09/18 05:00:34;;;;;;;1.92;1.40;;;19.40;99.90;;;;;;4149896;28;20683;-77
2022/09/18 05:02:38;;;;;;;2.88;1.40;;;19.40;99.90;;;;;;4144997;28;20206;-77
2022/09/18 05:04:41;;;;;;;2.70;1.50;;;19.40;99.90;;;;;;4149551;28;20253;-77
2022/09/18 05:06:43;;;;;;;1.80;1.40;;;19.40;99.90;;;;;;4162098;28;20240;-78
2022/09/18 05:08:45;;;;;;;2.47;1.45;;;19.40;99.90;;;;;;4165973;28;20220;-77
2022/09/18 05:10:48;;;;;;;3.63;1.50;;;19.40;99.90;;;;;;4165596;28;20282;-77
2022/09/18 05:12:50;;;;;;;3.20;1.50;;;19.40;99.90;;;;;;4165737;28;20283;-77
2022/09/18 05:14:52;;;;;;;2.08;1.27;;;19.40;99.90;;;;;;4166046;28;20291;-77
2022/09/18 05:16:55;;;;;;;3.60;1.50;;;19.40;99.90;;;;;;4155140;28;20620;-77
2022/09/18 05:18:59;;;;;;;2.22;1.20;;;19.30;99.90;;;;;;4164896;28;20661;-77
2022/09/18 05:21:01;;;;;;;2.95;1.33;;;19.30;99.90;;;;;;4165573;28;20652;-77
2022/09/18 05:23:05;;;;;;;2.58;1.33;;;19.30;99.90;;;;;;4165821;28;20258;-78
2022/09/18 05:25:08;;;;;;;1.70;1.30;;;19.40;99.90;;;;;;4165628;28;20276;-77
2022/09/18 05:27:11;;;;;;;2.28;1.45;;;19.30;99.90;;;;;;4162471;28;20268;-77
2022/09/18 05:29:13;;;;;;;2.65;1.48;;;19.30;99.90;;;;;;4165690;28;20629;-77
2022/09/18 05:31:15;;;;;;;2.95;1.13;;;19.40;99.90;;;;;;4161719;28;20239;-78
2022/09/18 05:33:18;;;;;;;1.88;1.20;;;19.30;99.90;;;;;;4165631;28;20271;-78
2022/09/18 05:35:21;;;;;;;2.47;1.30;;;19.30;99.90;;;;;;4161737;28;20267;-78
2022/09/18 05:37:24;;;;;;;2.20;1.50;;;19.40;99.90;;;;;;4165257;28;20902;-77
2022/09/18 05:39:26;;;;;;;1.98;1.38;;;19.30;99.90;;;;;;4165624;28;20217;-77
2022/09/18 05:41:28;;;;;;;1.88;1.40;;;19.30;99.90;;;;;;4165205;28;20290;-77
2022/09/18 05:43:31;;;;;;;2.15;1.23;;;19.30;99.90;;;;;;4165863;28;20263;-77
2022/09/18 05:45:34;;;;;;;1.60;1.10;;;19.40;99.90;;;;;;4157377;28;20271;-77
2022/09/18 05:47:36;;;;;;;2.55;1.13;;;19.30;99.90;;;;;;4169348;28;20213;-77
2022/09/18 05:49:38;;;;;;;2.45;1.30;;;19.30;99.90;;;;;;4165744;28;20270;-76
2022/09/18 05:51:43;;;;;;;1.70;1.25;;;19.30;99.90;;;;;;4166358;28;20208;-77
2022/09/18 05:53:47;;;;;;;1.52;1.27;;;19.30;99.90;;;;;;4165726;28;20640;-77
2022/09/18 05:55:49;;;;;;;2.03;1.35;;;19.30;99.90;;;;;;4164811;28;20267;-77
2022/09/18 05:57:53;;;;;;;1.58;1.10;;;19.30;99.90;;;;;;4164981;28;20637;-78
2022/09/18 05:59:55;;;;;;;2.88;1.45;;;19.30;99.90;;;;;;4165202;28;20266;-77
2022/09/18 06:01:57;;;;;;;1.95;1.38;;;19.40;99.90;;;;;;4164784;28;20282;-78
2022/09/18 06:04:01;;;;;;;1.85;1.17;;;19.30;99.90;;;;;;4165146;28;20220;-77
2022/09/18 06:06:04;;;;;;;2.63;1.20;;;19.30;99.90;;;;;;4164642;28;20771;-77
2022/09/18 06:08:08;;;;;;;2.55;1.50;;;19.30;99.90;;;;;;4163950;28;20221;-77
2022/09/18 06:10:11;;;;;;;2.17;1.20;;;19.30;99.90;;;;;;4161548;28;20208;-77
2022/09/18 06:12:13;;;;;;;1.55;1.20;;;19.30;99.90;;;;;;4164581;28;20266;-78
2022/09/18 06:14:16;;;;;;;3.25;1.25;;;19.30;99.90;;;;;;4164800;28;20216;-78
2022/09/18 06:16:18;;;;;;;2.28;1.20;;;19.30;99.90;;;;;;4162832;28;20607;-77
2022/09/18 06:18:21;;;;;;;1.65;1.40;;;19.30;99.90;;;;;;4164455;28;20223;-77
2022/09/18 06:20:23;;;;;;;2.00;1.30;;;19.30;99.90;;;;;;4163795;28;20217;-77
2022/09/18 06:22:25;;;;;;;4.18;1.58;;;19.30;99.90;;;;;;4163496;28;20636;-77
2022/09/18 06:24:29;;;;;;;3.08;1.30;;;19.30;99.90;;;;;;4164120;28;20224;-77
2022/09/18 06:26:31;;;;;;;2.28;1.40;;;19.30;99.90;;;;;;4163611;28;20616;-77
2022/09/18 06:28:34;;;;;;;3.53;1.30;;;19.30;99.90;;;;;;4158708;28;20212;-77
2022/09/18 06:30:37;;;;;;;2.33;1.25;;;19.30;99.90;;;;;;4163571;28;20848;-77
2022/09/18 06:32:39;;;;;;;1.95;1.38;;;19.30;99.90;;;;;;4163677;28;20220;-77
2022/09/18 06:34:41;;;;;;;2.13;1.45;;;19.30;99.90;;;;;;4162436;28;20216;-77
2022/09/18 06:36:44;;;;;;;2.92;1.30;;;19.30;99.90;;;;;;4162520;28;20286;-77
2022/09/18 06:38:50;;;;;;;2.28;1.30;;;19.30;99.90;;;;;;4163240;28;20212;-77
2022/09/18 06:40:54;;;;;;;2.28;1.35;;;19.30;99.90;;;;;;4163077;28;20262;-77
2022/09/18 06:42:57;;;;;;;2.33;1.50;;;19.40;99.90;;;;;;4163440;28;20751;-77
2022/09/18 06:44:59;;;;;;;3.08;1.65;;;19.40;99.90;;;;;;4163320;28;20266;-77
2022/09/18 06:47:01;;;;;;;2.50;1.42;;;19.30;99.90;;;;;;4163428;28;20231;-77
2022/09/18 06:49:03;;;;;;;3.15;1.63;;;19.30;99.90;;;;;;4148627;28;20217;-77
2022/09/18 06:51:06;;;;;;;2.08;1.30;;;19.30;99.90;;;;;;4161802;28;20212;-77
2022/09/18 06:53:08;;;;;;;1.67;1.20;;;19.30;99.90;;;;;;4162685;28;20217;-77
2022/09/18 06:55:10;;;;;;;1.48;1.00;;;19.30;99.90;;;;;;4162991;28;20224;-77
2022/09/18 06:57:14;;;;;;;1.25;1.10;;;19.40;99.90;;;;;;4163211;28;20221;-77
2022/09/18 06:59:16;;;;;;;3.28;1.58;;;19.30;99.90;;;;;;4163194;28;20220;-77
2022/09/18 07:01:18;;;;;;;2.17;1.30;;;19.40;99.90;;;;;;4160908;28;20273;-77
2022/09/18 07:03:21;;;;;;;1.98;1.30;;;19.40;99.90;;;;;;4162921;28;20244;-77
2022/09/18 07:05:24;;;;;;;2.58;1.23;;;19.30;99.90;;;;;;4162672;28;20266;-77
2022/09/18 07:07:26;;;;;;;2.63;1.42;;;19.40;99.90;;;;;;4162315;28;20224;-77
2022/09/18 07:09:28;;;;;;;2.10;1.33;;;19.40;99.90;;;;;;4162075;28;20220;-76
2022/09/18 07:11:31;;;;;;;1.58;1.13;;;19.40;99.90;;;;;;4158168;28;20233;-77
2022/09/18 07:13:36;;;;;;;1.38;1.10;;;19.40;99.90;;;;;;4162982;28;20220;-77
2022/09/18 07:15:38;;;;;;;1.60;1.30;;;19.40;99.90;;;;;;4162577;28;20283;-77
2022/09/18 07:17:40;;;;;;;1.80;1.17;;;19.40;99.90;;;;;;4162488;28;20216;-76
2022/09/18 07:19:43;;;;;;;1.83;1.10;;;19.40;99.90;;;;;;4160518;28;20271;-77
2022/09/18 07:21:45;;;;;;;1.77;1.20;;;19.40;99.90;;;;;;4162870;28;20600;-77
2022/09/18 07:23:47;;;;;;;2.80;1.35;;;19.40;99.90;;;;;;4162635;28;20286;-77
2022/09/18 07:25:49;;;;;;;2.47;1.40;;;19.40;99.90;;;;;;4162696;28;20274;-77
2022/09/18 07:27:52;;;;;;;2.15;1.40;;;19.40;99.90;;;;;;4162564;28;20212;-77
2022/09/18 07:29:56;;;;;;;2.38;1.20;;;19.50;99.90;;;;;;4162715;28;20917;-77
2022/09/18 07:31:59;;;;;;;2.78;1.38;;;19.40;99.90;;;;;;4162438;28;20224;-77
2022/09/18 07:34:01;;;;;;;2.72;1.30;;;19.40;99.90;;;;;;4162722;28;20634;-77
2022/09/18 07:36:05;;;;;;;1.35;1.15;;;19.40;99.90;;;;;;4160521;28;21005;-77
2022/09/18 07:38:08;;;;;;;2.28;1.13;;;19.40;99.90;;;;;;4162856;28;20213;-77
2022/09/18 07:40:11;;;;;;;2.67;1.38;;;19.50;99.90;;;;;;4162520;28;20208;-77
2022/09/18 07:42:14;;;;;;;2.45;1.35;;;19.50;99.90;;;;;;4162552;28;20231;-77
2022/09/18 07:44:16;;;;;;;2.67;1.33;;;19.40;99.90;;;;;;4162651;28;20216;-77
2022/09/18 07:46:20;;;;;;;1.27;0.90;;;19.50;99.90;;;;;;4162517;28;20261;-77
2022/09/18 07:48:23;;;;;;;1.73;1.30;;;19.50;99.90;;;;;;4159181;28;20267;-77
2022/09/18 07:50:25;;;;;;;2.05;1.33;;;19.50;99.90;;;;;;4156004;28;20619;-76
2022/09/18 07:52:27;;;;;;;2.75;1.40;;;19.50;99.90;;;;;;4162773;28;20213;-77
2022/09/18 07:54:30;;;;;;;3.53;1.55;;;19.50;99.90;;;;;;4162291;28;20220;-76
2022/09/18 07:56:32;;;;;;;3.10;1.33;;;19.50;99.90;;;;;;4162544;28;20221;-77
2022/09/18 07:58:34;;;;;;;1.77;1.02;;;19.50;99.90;;;;;;4162171;28;20293;-77
2022/09/18 08:00:37;;;;;;;2.67;1.50;;;19.50;99.90;;;;;;4162331;28;20262;-77
2022/09/18 08:02:41;;;;;;;1.60;1.30;;;19.50;99.90;;;;;;4162204;28;20244;-77
2022/09/18 08:04:43;;;;;;;2.25;1.20;;;19.50;99.90;;;;;;4157284;28;20217;-77
2022/09/18 08:06:45;;;;;;;2.55;1.40;;;19.50;99.90;;;;;;4151112;28;20291;-77
2022/09/18 08:08:47;;;;;;;2.08;1.20;;;19.50;99.90;;;;;;4158862;28;20637;-77
2022/09/18 08:10:50;;;;;;;2.35;1.30;;;19.50;99.90;;;;;;4162394;28;20630;-77
2022/09/18 08:12:54;;;;;;;2.35;1.50;;;19.50;99.90;;;;;;4162251;28;20217;-77
2022/09/18 08:14:56;;;;;;;1.40;1.30;;;19.60;99.90;;;;;;4160097;28;20220;-76
2022/09/18 08:16:58;;;;;;;1.73;1.25;;;19.50;99.90;;;;;;4160753;28;20266;-77
2022/09/18 08:19:02;;;;;;;1.65;1.30;;;19.50;99.90;;;;;;4161276;28;20248;-78
2022/09/18 08:21:05;;;;;;;1.55;1.10;;;19.50;99.90;;;;;;4163443;28;20563;-77
2022/09/18 08:23:08;;;;;;;2.20;1.25;;;19.50;99.90;;;;;;4163294;28;20701;-78
2022/09/18 08:25:10;;;;;;;1.92;1.35;;;19.60;99.90;;;;;;4151822;28;20217;-77
2022/09/18 08:27:13;;;;;;;2.17;1.40;;;19.50;99.90;;;;;;4163312;28;20220;-78
2022/09/18 08:29:17;;;;;;;2.28;1.25;;;19.50;99.90;;;;;;4163004;28;20235;-77
2022/09/18 08:31:20;;;;;;;2.72;1.40;;;19.50;99.90;;;;;;4155489;28;20263;-78
2022/09/18 08:33:22;;;;;;;2.33;1.35;;;19.50;99.90;;;;;;4163183;28;20209;-78
2022/09/18 08:35:26;;;;;;;1.85;1.42;;;19.60;99.90;;;;;;4165918;28;20286;-78
2022/09/18 08:37:29;;;;;;;2.70;1.60;;;19.50;99.90;;;;;;4165873;28;20246;-78
2022/09/18 08:39:31;;;;;;;2.17;1.20;;;19.60;99.90;;;;;;4165721;28;20248;-78
2022/09/18 08:42:00;;;;;;;1.85;1.23;;;19.60;99.90;;;;;;4165838;28;20623;-77
2022/09/18 08:44:09;;;;;;;2.08;1.35;;;19.60;99.90;;;;;;4165803;28;20232;-78
2022/09/18 08:46:15;;;;;;;1.45;1.10;;;19.60;99.90;;;;;;4165661;28;20225;-78
2022/09/18 08:48:24;;;;;;;2.05;1.20;;;19.60;99.90;;;;;;4157822;28;20270;-77
2022/09/18 08:50:31;;;;;;;2.00;1.40;;;19.60;99.90;;;;;;4165612;28;20267;-77
2022/09/18 08:52:38;;;;;;;1.80;1.20;;;19.50;99.90;;;;;;4165937;28;20266;-78
2022/09/18 08:54:47;;;;;;;2.75;1.40;;;19.60;99.90;;;;;;4166111;28;20216;-78
2022/09/18 08:56:50;;;;;;;1.80;1.10;;;19.60;99.90;;;;;;4166266;28;20220;-77
2022/09/18 08:58:55;;;;;;;3.25;1.60;;;19.60;99.90;;;;;;4166023;28;20220;-77
2022/09/18 09:01:02;;;;;;;3.15;1.38;;;19.60;99.90;;;;;;4165756;28;20283;-77
2022/09/18 09:03:19;;;;;;;1.80;1.30;;;19.60;99.90;;;;;;4162129;28;20254;-77
2022/09/18 09:05:26;;;;;;;2.42;1.45;;;19.60;99.90;;;;;;4166226;28;20282;-77
2022/09/18 09:07:48;;;;;;;2.03;1.20;;;19.70;99.90;;;;;;4165840;28;20270;-77
2022/09/18 09:10:07;;;;;;;2.55;1.40;;;19.70;99.90;;;;;;4157273;28;20216;-77
2022/09/18 09:12:18;;;;;;;2.97;1.30;;;19.70;99.90;;;;;;4159937;28;20239;-77
2022/09/18 09:14:38;;;;;;;1.90;1.17;;;19.70;99.90;;;;;;4161188;28;20662;-77
2022/09/18 09:16:43;;;;;;;1.50;1.20;;;19.60;99.90;;;;;;4161071;28;20275;-77
2022/09/18 09:18:58;;;;;;;2.30;1.20;;;19.70;99.90;;;;;;4162841;28;20270;-77
2022/09/18 09:21:09;;;;;;;1.98;1.45;;;19.70;99.90;;;;;;4163797;28;20295;-77
2022/09/18 09:23:22;;;;;;;2.42;1.40;;;19.70;99.90;;;;;;4166474;28;20220;-76
2022/09/18 09:25:44;;;;;;;1.38;1.25;;;19.60;99.90;;;;;;4167217;28;20220;-77
2022/09/18 09:27:52;;;;;;;2.65;1.20;;;19.70;99.90;;;;;;4163070;28;20221;-77
2022/09/18 09:30:01;;;;;;;1.92;1.40;;;19.70;99.90;;;;;;4159027;28;20217;-77
2022/09/18 09:32:10;;;;;;;1.63;1.23;;;19.70;99.90;;;;;;4155499;28;20220;-77
2022/09/18 09:34:16;;;;;;;2.13;1.30;;;19.70;99.90;;;;;;4165461;28;20711;-77
2022/09/18 09:36:23;;;;;;;2.38;1.30;;;19.70;99.90;;;;;;4165610;28;20225;-77
2022/09/18 09:38:39;;;;;;;2.15;1.40;;;19.70;99.90;;;;;;4171256;28;20224;-78
2022/09/18 09:40:45;;;;;;;1.50;0.93;;;19.70;99.90;;;;;;4165649;28;20294;-77
2022/09/18 09:42:52;;;;;;;2.47;1.10;;;19.70;99.90;;;;;;4164246;28;20264;-78
2022/09/18 09:45:00;;;;;;;1.77;1.00;;;19.70;99.90;;;;;;4165059;28;20786;-78
2022/09/18 09:47:15;;;;;;;1.70;1.30;;;19.70;99.90;;;;;;4165337;28;20254;-78
2022/09/18 09:49:23;;;;;;;1.88;1.08;;;19.70;99.90;;;;;;4163891;28;20212;-77
2022/09/18 09:51:32;;;;;;;2.15;1.20;;;19.70;99.90;;;;;;4164733;28;20725;-77
2022/09/18 09:53:36;;;;;;;1.50;1.10;;;19.70;99.90;;;;;;4156283;28;20216;-78
2022/09/18 09:55:49;;;;;;;2.22;1.05;;;19.70;99.90;;;;;;4164888;28;20221;-78
2022/09/18 09:58:03;;;;;;;1.67;1.10;;;19.70;99.90;;;;;;4164646;28;20643;-78
2022/09/18 10:00:13;;;;;;;2.35;1.42;;;19.70;99.90;;;;;;4164730;28;20270;-77
2022/09/18 10:02:33;;;;;;;1.65;1.20;;;19.80;99.90;;;;;;4162765;28;20220;-77
2022/09/18 10:04:43;;;;;;;1.98;1.05;;;19.70;99.90;;;;;;4159444;28;20228;-77
2022/09/18 10:06:52;;;;;;;2.30;1.40;;;19.80;99.90;;;;;;4151948;28;21028;-77
2022/09/18 10:09:02;;;;;;;2.97;1.40;;;19.80;99.90;;;;;;4148168;28;20244;-77
2022/09/18 10:11:07;;;;;;;1.20;1.10;;;19.80;99.90;;;;;;4139348;28;20222;-77
2022/09/18 10:13:14;;;;;;;1.67;1.00;;;19.80;99.90;;;;;;4141329;28;20265;-77
2022/09/18 10:15:22;;;;;;;1.30;1.00;;;19.80;99.90;;;;;;4146915;28;20230;-78
2022/09/18 10:17:26;;;;;;;2.78;1.52;;;19.90;99.90;;;;;;4143859;28;20245;-77
2022/09/18 10:19:35;;;;;;;1.65;1.17;;;19.80;99.90;;;;;;4139858;28;20281;-77
2022/09/18 10:21:38;;;;;;;2.33;1.25;;;19.80;99.90;;;;;;4143836;28;20213;-78
2022/09/18 10:23:42;;;;;;;2.50;1.35;;;19.90;99.90;;;;;;4147635;28;20217;-78
2022/09/18 10:25:51;;;;;;;1.80;1.10;;;19.90;99.90;;;;;;4144611;28;20214;-77
2022/09/18 10:27:53;;;;;;;1.48;0.88;;;19.90;99.90;;;;;;4147012;28;20248;-77
2022/09/18 10:29:55;;;;;;;1.83;1.27;;;19.90;99.90;;;;;;4148144;28;20209;-77
2022/09/18 10:32:00;;;;;;;1.70;1.20;;;19.90;99.90;;;;;;4130516;28;20625;-77
2022/09/18 10:34:02;;;;;;;1.60;1.23;;;19.90;99.90;;;;;;4147713;28;20281;-78
2022/09/18 10:36:25;;;;;;;1.02;0.93;;;19.90;99.90;;;;;;4139886;28;20268;-78
2022/09/18 10:38:31;;;;;;;1.85;1.25;;;19.90;99.90;;;;;;4129468;28;20632;-78
2022/09/18 10:40:38;;;;;;;1.88;1.25;;;19.90;99.90;;;;;;4132924;28;20269;-77
2022/09/18 10:42:43;;;;;;;1.92;1.13;;;19.90;99.90;;;;;;4143547;28;20584;-77
2022/09/18 10:44:52;;;;;;;2.63;1.30;;;19.90;99.90;;;;;;4148099;28;20287;-77
2022/09/18 10:46:58;;;;;;;1.83;1.15;;;20.00;99.90;;;;;;4142726;28;20271;-77
2022/09/18 10:49:14;;;;;;;1.75;1.02;;;19.90;99.90;;;;;;4139331;28;20213;-77
2022/09/18 10:51:20;;;;;;;1.80;1.35;;;19.90;99.90;;;;;;4146352;28;20217;-77
2022/09/18 10:53:29;;;;;;;2.15;1.10;;;20.00;99.90;;;;;;4147642;28;20279;-77